ADDS METAR Data INFO
IDs: Format: Raw Decoded Include TAF

Data at: 0858 UTC 19 Jun 2018

KRME 190853Z AUTO 34010KT 10SM CLR 18/15 A2986 RMK AO2 SLP107 T01780150 53022
KRME 190753Z AUTO 35007KT 10SM OVC050 19/16 A2982 RMK AO2 SLP094 T01940161
KRME 190653Z AUTO 33005KT 10SM OVC045 21/18 A2981 RMK AO2 SLP088 T02060178
KRME 190631Z AUTO 34006KT 10SM FEW020 SCT025 OVC045 21/18 A2980 RMK AO2 T02060183
KRME 190612Z AUTO 34008G18KT 10SM FEW008 BKN022 OVC045 21/19 A2980 RMK AO2 T02110194
KRME 190553Z AUTO 30006KT 10SM FEW006 BKN010 OVC046 21/21 A2979 RMK AO2 CIG 007V016 SLP083 60003 T02060206 10250 20206 53007
KRME 190540Z AUTO 28011KT 10SM BKN011 OVC022 21/21 A2979 RMK AO2 T02110206
KRME 190453Z AUTO 25007KT 10SM BKN016 OVC021 21/21 A2977 RMK AO2 SLP075 T02110211 403280172
KRME 190438Z AUTO 28007KT 10SM BKN021 OVC060 22/21 A2977 RMK AO2 T02170211
KRME 190412Z AUTO 28009KT 10SM SCT017 OVC055 22/21 A2978 RMK AO2 T02170211
KRME 190353Z AUTO 27008KT 10SM FEW014 BKN018 BKN029 22/21 A2978 RMK AO2 RAE14 SLP077 P0002 T02170211
KRME 190337Z AUTO 28008KT 10SM SCT014 BKN029 OVC065 22/21 A2978 RMK AO2 RAE14 P0002 T02220211
KRME 190253Z AUTO 30013KT 8SM -RA BKN013 BKN019 OVC025 23/22 A2977 RMK AO2 RAB11 SLP075 P0001 60001 T02280222 50006
KRME 190153Z AUTO 30004KT 10SM BKN029 OVC042 24/23 A2975 RMK AO2 SLP068 T02390228
KRME 190148Z AUTO 30005KT 10SM BKN029 OVC042 24/23 A2975 RMK AO2
KRME 190053Z 28007KT 10SM BKN100 25/23 A2975 RMK AO2 SLP068 T02500228
KRME 182353Z 29007KT 10SM SCT060 BKN110 25/23 A2977 RMK AO2 SLP075 60015 T02500228 10317 20239 55021
KRME 182253Z 28007KT 10SM FEW080 FEW100 BKN110 25/23 A2977 RMK AO2 SLP074 T02500228
KRME 182153Z 25006KT 10SM FEW035 FEW080 24/23 A2978 RMK AO2 RAE37 SLP080 P0007 T02440228
KRME 182053Z 27009KT 10SM -RA FEW040 SCT070 OVC090 24/22 A2983 RMK AO2 RAB12 SLP097 P0008 60008 T02440222 53003
KRME 182040Z 28014G22KT 3SM RA SCT040 BKN070 OVC090 24/22 A2983 RMK AO2 LTG DSNT SE RAB12 P0005 T02440217
KRME 182028Z 29015KT 1 3/4SM +RA BR SCT041 BKN055 BKN075 25/23 A2984 RMK AO2 VIS 3/4V4 RAB12 P0002 T02500228
KRME 181953Z 31010KT 10SM FEW037 FEW070 27/23 A2981 RMK AO2 RAE02 TSE09 SLP090 P0000 T02720233
KRME 181915Z 00000KT 10SM FEW038 SCT047 28/22 A2981 RMK AO2 LTG DSNT E RAE02 TSE09 P0000 T02780222
KRME 181853Z 31010KT 7SM TSRA SCT040 BKN048 BKN060 27/22 A2982 RMK AO2 WSHFT 1747 LTG DSNT N-SE RAB18E33B48 TSB45 SLP093 P0000 T02670217
KRME 181851Z 31010KT 6SM TSRA SCT040 BKN048 BKN060 27/22 A2982 RMK AO2 WSHFT 1747 LTG DSNT E AND SE RAB18E33B48 TSB45 P0000
KRME 181837Z 29006KT 10SM SCT050 SCT060 BKN120 28/21 A2981 RMK AO2 WSHFT 1747 LTG DSNT N AND SE RAB18E33 P0000 T02780206
KRME 181820Z 31014G19KT 9SM VCTS -RA FEW049 SCT100 SCT120 29/23 A2981 RMK AO2 WSHFT 1747 LTG DSNT ALQDS RAB18 P0000 T02890228
KRME 181807Z 34011KT 10SM FEW075 FEW095 FEW120 31/23 A2982 RMK AO2 WSHFT 1747 LTG DSNT S T03110233
KRME 181753Z 31017G22KT 10SM FEW100 FEW120 32/23 A2983 RMK AO2 LTG DSNT S AND NW SLP094 T03220228 10328 20244 58019
KRME 181739Z 26015G22KT 10SM VCTS CLR 32/22 A2984 RMK AO2 T03220222
KRME 181653Z 28013KT 10SM CLR 33/22 A2985 RMK AO2 SLP101 T03280222
KRME 181553Z 27007KT 230V300 10SM CLR 32/23 A2987 RMK AO2 SLP108 T03220228
KRME 181453Z 28008KT 210V300 10SM FEW075 31/22 A2988 RMK AO2 SLP114 T03060222 58018
KRME 181353Z 00000KT 10SM CLR 28/21 A2990 RMK AO2 SLP121 T02830211
KRME 181253Z 08004KT 10SM FEW085 27/21 A2993 RMK AO2 SLP131 T02670206
KRME 181153Z 10006KT 10SM FEW055 24/19 A2994 RMK AO2 SLP133 T02440194 10244 20172 56008
KRME 181053Z 10004KT 10SM FEW055 21/19 A2994 RMK AO2 SLP134 T02110189
KRME 180953Z AUTO 09004KT 10SM CLR 21/18 A2995 RMK AO2 SLP137 T02060183 $
KRME 180853Z AUTO 00000KT 10SM CLR 18/17 A2996 RMK AO2 SLP141 T01780167 58011 $
KRME 180753Z AUTO 00000KT 10SM CLR 17/16 A2997 RMK AO2 SLP145 T01720161 $
KRME 180653Z AUTO 00000KT 10SM CLR 19/17 A2999 RMK AO2 SLP150 T01940167 $
KRME 180553Z AUTO 05003KT 10SM CLR 19/17 A3000 RMK AO2 SLP153 T01940167 10256 20189 58002 $
KRME 180453Z AUTO 00000KT 10SM BKN060 19/17 A3000 RMK AO2 SLP155 T01940167 403060106 $
KRME 180353Z AUTO 00000KT 10SM CLR 21/17 A3000 RMK AO2 SLP154 T02060167 $
KRME 180253Z AUTO 00000KT 10SM CLR 22/17 A3000 RMK AO2 SLP155 T02170167 55001 $
KRME 180153Z AUTO 13003KT 10SM CLR 21/18 A3000 RMK AO2 SLP154 T02110178 $
KRME 180053Z 11003KT 10SM CLR 24/18 A2999 RMK AO2 SLP153 T02390178 $
KRME 172353Z 05004KT 10SM CLR 26/19 A3000 RMK AO2 SLP156 T02560189 10306 20256 56015 $
KRME 172253Z 00000KT 10SM CLR 29/16 A3002 RMK AO2 SLP161 T02890156 $
KRME 172153Z 12004KT 10SM CLR 31/16 A3003 RMK AO2 SLP164 T03060156 $